Time;durP1;ratioP1;P1;durP2;ratioP2;P2;SDS_P1;SDS_P2;PMS_P1;PMS_P2;Temp;Humidity;BMP_temperature;BMP_pressure;BME280_temperature;BME280_humidity;BME280_pressure;Samples;Min_cycle;Max_cycle;Signal;HPM_P1;HPM_P2
2022/04/13 00:01:52;;;;;;;5.77;3.50;;;9.00;51.90;;;7.73;58.37;97798.63;5049401;28;20548;-80
2022/04/13 00:04:19;;;;;;;3.97;3.57;;;8.90;52.10;;;7.71;58.19;97808.78;5059136;28;21252;-80
2022/04/13 00:06:46;;;;;;;5.00;3.90;;;8.90;52.20;;;7.53;59.01;97807.47;5046599;28;21103;-80
2022/04/13 00:09:13;;;;;;;4.00;3.60;;;8.80;52.40;;;7.45;59.04;97799.56;5051287;28;20804;-82
2022/04/13 00:11:40;;;;;;;6.90;4.00;;;8.60;52.50;;;7.36;59.24;97796.22;5043935;28;21051;-79
2022/04/13 00:14:07;;;;;;;4.07;3.03;;;8.60;52.60;;;7.45;59.19;97799.56;5048095;28;20460;-81
2022/04/13 00:16:36;;;;;;;5.80;3.30;;;8.60;52.70;;;7.44;59.23;97797.91;5055009;28;20493;-81
2022/04/13 00:19:03;;;;;;;6.03;3.43;;;8.60;52.70;;;7.64;58.62;97793.44;5050115;28;20970;-81
2022/04/13 00:21:30;;;;;;;4.57;3.87;;;8.70;52.80;;;7.81;57.63;97793.09;5069649;28;20461;-81
2022/04/13 00:23:57;;;;;;;4.90;3.43;;;8.80;52.50;;;7.70;58.31;97790.97;5049530;28;20461;-83
2022/04/13 00:26:24;;;;;;;3.77;3.03;;;8.90;52.40;;;7.19;58.58;97748.19;5048106;28;20560;-83
2022/04/13 00:28:51;;;;;;;4.40;3.57;;;8.70;52.50;;;7.35;58.63;97773.91;5037247;28;20797;-83
2022/04/13 00:31:18;;;;;;;4.20;3.00;;;8.70;52.90;;;7.88;57.67;97793.91;5047699;28;20461;-83
2022/04/13 00:33:47;;;;;;;4.30;3.10;;;8.90;52.60;;;7.95;57.13;97777.78;5050930;28;20465;-83
2022/04/13 00:36:15;;;;;;;4.07;2.93;;;9.00;52.30;;;8.11;56.65;97783.81;5052030;28;20449;-81
2022/04/13 00:38:42;;;;;;;3.93;3.20;;;9.20;52.10;;;8.18;56.21;97790.84;5055372;28;20963;-82
2022/04/13 00:41:09;;;;;;;5.73;3.60;;;9.20;51.90;;;7.93;56.17;97751.06;5050941;28;20639;-82
2022/04/13 00:43:36;;;;;;;3.30;3.00;;;9.30;52.00;;;8.17;56.51;97788.38;5057853;28;20526;-83
2022/04/13 00:46:03;;;;;;;3.77;3.47;;;9.30;51.80;;;7.76;57.34;97766.78;5050130;28;20581;-84
2022/04/13 00:48:33;;;;;;;3.87;3.57;;;9.10;51.90;;;7.85;57.67;97786.25;5052594;28;20545;-82
2022/04/13 00:51:02;;;;;;;4.10;3.40;;;9.00;52.30;;;8.13;57.21;97789.81;5045179;28;20511;-83
2022/04/13 00:53:31;;;;;;;4.10;3.03;;;9.10;52.40;;;8.17;56.53;97781.13;5043812;28;20537;-84
2022/04/13 00:56:00;;;;;;;5.33;2.90;;;9.20;52.00;;;8.11;56.74;97789.19;5039178;28;20479;-83
2022/04/13 00:58:29;;;;;;;3.83;3.17;;;9.20;52.00;;;7.89;57.99;97797.44;5049908;28;20476;-83
2022/04/13 01:00:59;;;;;;;3.97;3.00;;;9.10;52.30;;;7.62;57.59;97757.84;5048648;28;21149;-82
2022/04/13 01:03:27;;;;;;;4.80;3.43;;;9.00;52.50;;;7.98;57.16;97784.63;5045996;28;20444;-83
2022/04/13 01:05:55;;;;;;;4.63;3.13;;;9.10;52.40;;;8.15;56.72;97798.50;5046445;28;20492;-83
2022/04/13 01:08:25;;;;;;;3.70;3.40;;;9.20;52.40;;;8.22;56.32;97799.34;5046999;28;20488;-82
2022/04/13 01:10:52;;;;;;;4.43;3.20;;;9.30;52.20;;;8.19;56.79;97794.41;5040809;28;20587;-81
2022/04/13 01:13:20;;;;;;;3.97;3.60;;;9.40;52.20;;;7.93;56.36;97751.06;5046335;28;20607;-81
2022/04/13 01:15:48;;;;;;;4.97;3.30;;;9.40;52.20;;;7.82;56.85;97738.25;5046973;28;20467;-82
2022/04/13 01:18:18;;;;;;;5.10;3.60;;;9.30;52.10;;;7.90;56.72;97758.75;5050429;28;20461;-83
2022/04/13 01:21:13;;;;;;;3.90;3.60;;;9.30;52.20;;;8.02;57.32;97799.31;5047731;28;20477;-81
2022/04/13 01:24:55;;;;;;;4.87;3.43;;;9.20;52.50;;;7.98;57.63;97808.84;5031018;28;20462;-82
2022/04/13 01:27:22;;;;;;;7.67;3.90;;;9.10;52.60;;;7.78;57.53;97788.94;5045994;28;21268;-81
2022/04/13 01:29:54;;;;;;;4.50;3.30;;;9.10;52.70;;;7.91;57.93;97808.84;5041088;28;20543;-82
2022/04/13 01:32:21;;;;;;;3.43;3.13;;;9.10;52.60;;;7.96;57.73;97810.88;5053503;28;20464;-82
2022/04/13 01:34:50;;;;;;;4.90;3.70;;;9.10;52.80;;;7.96;58.24;97800.97;5047631;28;20493;-82
2022/04/13 01:37:19;;;;;;;5.20;3.30;;;9.10;52.80;;;7.82;58.10;97794.75;5056785;28;20449;-81
2022/04/13 01:39:48;;;;;;;4.53;3.20;;;9.10;52.90;;;7.83;58.28;97800.94;5041627;28;20478;-82
2022/04/13 01:42:15;;;;;;;5.47;3.83;;;9.00;53.00;;;7.76;58.03;97784.78;5055260;28;20500;-82
2022/04/13 01:44:42;;;;;;;9.43;3.90;;;9.00;53.00;;;7.84;58.04;97786.44;5054508;28;20453;-82
2022/04/13 01:47:10;;;;;;;5.10;3.93;;;9.00;52.90;;;7.83;58.26;97791.03;5039364;28;20488;-83
2022/04/13 01:49:37;;;;;;;4.70;3.53;;;9.00;53.10;;;7.80;58.40;97786.88;5057521;28;20456;-82
2022/04/13 01:52:06;;;;;;;4.13;3.70;;;9.00;53.10;;;7.66;58.42;97795.94;5058118;28;20984;-80
2022/04/13 01:54:33;;;;;;;4.43;4.03;;;8.90;53.10;;;7.43;59.03;97788.19;5048219;28;20957;-79
2022/04/13 01:57:02;;;;;;;3.90;3.50;;;8.70;53.30;;;7.46;59.59;97795.84;5050267;28;20515;-81
2022/04/13 01:59:30;;;;;;;5.13;3.90;;;8.60;53.50;;;7.40;59.41;97796.66;5047574;28;20875;-79
2022/04/13 02:01:57;;;;;;;3.50;3.20;;;8.60;53.70;;;7.66;58.73;97801.31;5027817;28;20807;-80
2022/04/13 02:04:26;;;;;;;4.23;3.80;;;8.70;53.70;;;7.67;58.44;97799.47;5045977;28;20466;-81
2022/04/13 02:06:54;;;;;;;6.87;3.63;;;8.80;53.70;;;7.60;58.80;97811.00;5050561;28;20484;-82
2022/04/13 02:09:21;;;;;;;8.67;4.17;;;8.70;53.50;;;7.16;59.15;97737.84;5056156;28;20458;-81
2022/04/13 02:11:49;;;;;;;6.20;4.20;;;8.70;53.60;;;7.35;59.66;97806.16;5062701;28;20464;-83
2022/04/13 02:14:17;;;;;;;4.70;4.10;;;8.60;53.70;;;7.45;59.63;97805.78;5070982;28;20453;-80
2022/04/13 02:16:45;;;;;;;4.03;3.43;;;8.60;53.90;;;7.36;59.39;97807.81;5047563;28;20774;-81
2022/04/13 02:19:12;;;;;;;4.80;3.90;;;8.50;53.90;;;7.27;60.60;97802.78;5034632;28;20457;-80
2022/04/13 02:21:40;;;;;;;4.53;3.93;;;8.40;54.00;;;7.25;60.33;97800.31;5046969;28;20534;-84
2022/04/13 02:24:08;;;;;;;4.97;3.73;;;8.30;54.40;;;7.25;60.80;97805.69;5048702;28;20450;-80
2022/04/13 02:26:35;;;;;;;5.27;4.17;;;8.30;54.60;;;7.28;60.40;97804.44;5059122;28;20985;-80
2022/04/13 02:29:02;;;;;;;6.40;4.10;;;8.40;54.60;;;7.15;60.72;97805.22;5053661;28;20450;-79
2022/04/13 02:31:31;;;;;;;4.87;4.17;;;8.30;54.60;;;6.98;61.64;97802.84;5048741;28;20465;-80
2022/04/13 02:33:58;;;;;;;4.80;4.30;;;8.20;54.80;;;6.81;61.94;97794.25;5043348;28;20700;-80
2022/04/13 02:36:25;;;;;;;4.07;3.70;;;8.00;55.00;;;6.95;61.44;97795.19;5048827;28;20457;-81
2022/04/13 02:38:53;;;;;;;4.80;4.17;;;8.00;55.40;;;6.98;60.96;97794.78;5045130;28;20453;-81
2022/04/13 02:41:20;;;;;;;5.50;4.27;;;8.10;55.10;;;6.77;62.27;97793.84;5047619;28;20457;-78
2022/04/13 02:43:47;;;;;;;6.03;3.70;;;8.00;55.30;;;6.95;61.98;97803.25;5048703;28;20995;-81
2022/04/13 02:46:14;;;;;;;4.63;4.10;;;8.00;55.50;;;6.88;61.81;97805.06;5030668;28;20961;-79
2022/04/13 02:48:43;;;;;;;4.47;4.07;;;8.00;55.40;;;6.67;62.30;97809.47;5046508;28;20543;-80
2022/04/13 02:51:10;;;;;;;4.53;4.07;;;7.90;55.80;;;6.85;61.92;97800.94;5047548;28;20471;-79
2022/04/13 02:53:37;;;;;;;4.23;3.83;;;7.90;55.90;;;6.68;61.91;97768.16;5042675;28;20445;-81
2022/04/13 02:56:05;;;;;;;6.67;3.57;;;8.00;55.70;;;6.86;61.51;97802.59;5040766;28;20461;-82
2022/04/13 02:58:32;;;;;;;5.20;4.40;;;8.00;55.70;;;6.78;61.92;97795.50;5048227;28;20483;-83
2022/04/13 03:00:59;;;;;;;4.47;4.07;;;8.00;55.80;;;6.96;61.65;97810.28;5044007;28;20842;-82
2022/04/13 03:03:26;;;;;;;6.00;4.30;;;8.10;55.90;;;6.89;62.22;97814.75;5033805;28;20462;-81
2022/04/13 03:05:54;;;;;;;4.73;3.80;;;8.00;55.80;;;6.89;61.66;97814.75;5035332;28;20534;-82
2022/04/13 03:08:21;;;;;;;5.50;4.27;;;8.00;55.80;;;6.84;61.96;97803.78;5051653;28;20475;-80
2022/04/13 03:10:48;;;;;;;4.60;3.90;;;8.00;55.90;;;6.77;62.48;97798.38;5044216;28;20453;-82
2022/04/13 03:13:15;;;;;;;5.40;4.70;;;8.00;55.90;;;6.67;62.62;97790.69;5051787;28;20547;-82
2022/04/13 03:15:44;;;;;;;6.10;4.70;;;8.00;56.10;;;6.70;62.37;97810.94;5050304;28;20538;-82
2022/04/13 03:18:11;;;;;;;6.10;3.90;;;7.90;56.10;;;6.50;63.20;97804.38;5053946;28;20465;-82
2022/04/13 03:20:38;;;;;;;8.60;4.10;;;7.80;56.30;;;6.59;62.56;97797.03;5046603;28;20925;-80
2022/04/13 03:23:06;;;;;;;4.80;4.40;;;7.80;56.30;;;6.55;63.54;97811.03;5063532;28;20558;-81
2022/04/13 03:25:34;;;;;;;5.00;4.60;;;7.70;56.40;;;6.49;63.29;97807.25;5057578;28;20535;-80
2022/04/13 03:28:01;;;;;;;4.60;4.20;;;7.70;56.60;;;6.45;63.12;97790.72;5042792;28;20841;-81
2022/04/13 03:30:28;;;;;;;5.47;4.37;;;7.70;56.60;;;6.56;63.18;97805.47;5052317;28;20506;-81
2022/04/13 03:32:55;;;;;;;8.80;4.40;;;7.70;56.70;;;6.56;63.07;97802.78;5047374;28;20492;-82
2022/04/13 03:35:23;;;;;;;5.97;4.97;;;7.70;56.60;;;6.52;63.17;97805.03;5043897;28;20588;-81
2022/04/13 03:37:50;;;;;;;4.80;4.23;;;7.70;56.60;;;6.55;63.10;97797.59;5034978;28;20464;-80
2022/04/13 03:40:18;;;;;;;4.50;4.10;;;7.70;56.90;;;6.47;63.24;97802.09;5059638;28;20499;-80
2022/04/13 03:42:45;;;;;;;6.03;4.47;;;7.70;56.80;;;6.42;63.57;97801.84;5039330;28;20493;-82
2022/04/13 03:45:14;;;;;;;7.10;4.33;;;7.60;56.90;;;6.32;63.33;97802.16;5043177;28;20482;-80
2022/04/13 03:47:42;;;;;;;4.87;4.43;;;7.60;57.00;;;6.24;64.07;97813.88;5045980;28;21082;-80
2022/04/13 03:50:11;;;;;;;6.60;4.47;;;7.50;57.20;;;6.15;63.76;97795.41;5039570;28;21146;-80
2022/04/13 03:52:38;;;;;;;5.40;4.30;;;7.40;57.40;;;6.33;64.05;97816.44;5038360;28;20547;-82
2022/04/13 03:55:08;;;;;;;4.60;4.20;;;7.50;57.40;;;6.20;64.12;97804.56;5041408;28;20460;-79
2022/04/13 03:57:37;;;;;;;4.47;4.07;;;7.50;57.50;;;6.23;64.24;97831.00;5049412;28;20488;-79
2022/04/13 04:00:08;;;;;;;5.37;4.13;;;7.40;57.50;;;6.27;63.57;97819.88;5050335;28;20453;-81
2022/04/13 04:02:38;;;;;;;4.80;4.37;;;7.40;57.50;;;6.21;64.09;97822.31;5049003;28;20547;-80
2022/04/13 04:05:06;;;;;;;5.93;4.27;;;7.40;57.70;;;6.14;64.45;97824.09;5044213;28;20467;-79
2022/04/13 04:07:33;;;;;;;6.37;4.63;;;7.40;57.80;;;6.18;64.01;97828.06;5059156;28;20500;-81
2022/04/13 04:10:01;;;;;;;5.50;4.80;;;7.40;57.90;;;6.09;64.29;97818.47;5042977;28;20454;-80
2022/04/13 04:12:28;;;;;;;3.93;3.50;;;7.30;57.90;;;6.04;64.30;97810.19;5054161;28;20453;-80
2022/04/13 04:15:01;;;;;;;10.30;4.73;;;7.30;58.00;;;6.11;64.24;97827.16;5047014;28;20556;-80
2022/04/13 04:17:28;;;;;;;5.90;4.60;;;7.30;58.00;;;6.01;64.68;97816.75;5049226;28;20452;-81
2022/04/13 04:19:55;;;;;;;6.13;5.00;;;7.30;58.10;;;6.07;64.29;97820.53;5046748;28;20458;-82
2022/04/13 04:22:24;;;;;;;4.93;4.07;;;7.30;58.10;;;6.15;64.16;97827.59;5065969;28;20863;-81
2022/04/13 04:24:51;;;;;;;6.50;4.70;;;7.40;58.20;;;6.12;64.17;97820.75;5048879;28;20448;-82
2022/04/13 04:27:18;;;;;;;4.80;4.27;;;7.30;58.00;;;6.09;64.54;97830.03;5048083;28;20528;-83
2022/04/13 04:29:45;;;;;;;6.70;4.47;;;7.40;58.10;;;6.18;63.73;97822.69;5048654;28;20599;-84
2022/04/13 04:32:14;;;;;;;4.83;4.23;;;7.40;58.20;;;6.15;64.34;97817.72;5046908;28;20481;-82
2022/04/13 04:34:41;;;;;;;7.17;5.03;;;7.40;58.20;;;6.05;64.11;97819.88;5046628;28;20466;-83
2022/04/13 04:37:08;;;;;;;5.03;4.23;;;7.40;58.20;;;5.77;64.54;97772.34;5044051;28;20464;-83
2022/04/13 04:39:35;;;;;;;5.47;4.20;;;7.40;58.20;;;5.92;64.49;97807.97;5047209;28;20492;-75
2022/04/13 04:42:04;;;;;;;6.20;4.40;;;7.40;58.20;;;6.08;64.39;97827.53;5043572;28;20541;-75
2022/04/13 04:44:31;;;;;;;8.93;5.27;;;7.30;58.40;;;5.71;64.33;97762.38;5046171;28;20544;-77
2022/04/13 04:46:58;;;;;;;5.07;4.40;;;7.30;58.40;;;6.08;64.16;97827.53;5043885;28;20457;-75
2022/04/13 04:49:26;;;;;;;6.10;4.67;;;7.30;58.40;;;6.02;64.22;97839.84;5049665;28;20490;-74
2022/04/13 04:51:53;;;;;;;4.93;4.43;;;7.30;58.40;;;5.89;65.22;97848.56;5043053;28;20483;-76
2022/04/13 04:54:20;;;;;;;6.83;4.20;;;7.20;58.80;;;5.84;65.32;97853.69;5038486;28;20754;-75
2022/04/13 04:56:47;;;;;;;8.23;4.63;;;7.10;59.00;;;5.95;64.64;97858.53;5048110;28;20525;-73
2022/04/13 04:59:15;;;;;;;5.33;4.10;;;7.10;58.90;;;6.02;65.72;97853.28;5064590;28;20488;-78
2022/04/13 05:01:42;;;;;;;5.60;4.80;;;7.20;59.70;;;5.98;64.64;97843.06;5068081;28;20529;-75
2022/04/13 05:04:10;;;;;;;5.23;4.43;;;7.30;59.20;;;6.13;64.40;97859.97;5063051;28;20540;-75
2022/04/13 05:06:38;;;;;;;6.00;4.63;;;7.30;58.90;;;6.08;64.78;97857.03;5068466;28;20464;-78
2022/04/13 05:09:05;;;;;;;7.80;4.30;;;7.40;58.90;;;6.08;64.29;97865.94;5063196;28;20466;-73
2022/04/13 05:11:32;;;;;;;6.97;5.60;;;7.40;58.90;;;6.36;65.35;97867.84;5067103;28;20521;-77
2022/04/13 05:13:59;;;;;;;7.53;4.73;;;7.50;59.70;;;6.73;63.18;97878.47;5074989;28;20485;-70
2022/04/13 05:16:26;;;;;;;6.43;4.97;;;7.90;59.10;;;6.65;63.33;97886.69;5056984;28;20472;-76
2022/04/13 05:18:53;;;;;;;5.10;4.60;;;8.00;58.30;;;6.62;62.95;97877.16;5059948;28;20861;-73
2022/04/13 05:21:20;;;;;;;7.00;4.90;;;8.00;58.00;;;6.61;63.10;97880.06;5062401;28;21031;-74
2022/04/13 05:23:49;;;;;;;8.23;5.13;;;8.00;57.70;;;6.82;62.42;97878.34;5061165;28;20488;-77
2022/04/13 05:26:18;;;;;;;4.90;4.40;;;8.20;57.80;;;7.05;61.83;97884.34;5048692;28;20564;-80
2022/04/13 05:28:45;;;;;;;5.83;4.50;;;8.40;57.50;;;7.29;60.83;97876.81;5052603;28;20593;-77
2022/04/13 05:31:12;;;;;;;6.23;4.70;;;8.70;56.90;;;7.75;59.29;97879.94;5048543;28;20484;-82
2022/04/13 05:33:39;;;;;;;6.80;5.07;;;9.20;56.20;;;7.99;58.24;97885.84;5049548;28;20485;-74
2022/04/13 05:36:07;;;;;;;6.47;4.60;;;9.50;55.20;;;7.86;58.35;97875.84;5040673;28;20497;-84
2022/04/13 05:38:35;;;;;;;4.90;4.40;;;9.50;55.00;;;7.96;58.29;97886.22;5063088;28;20834;-84
2022/04/13 05:41:04;;;;;;;6.43;5.00;;;9.50;55.00;;;7.83;58.68;97893.22;5049291;28;20442;-81
2022/04/13 05:43:33;;;;;;;6.50;5.30;;;9.40;55.10;;;7.70;58.91;97888.59;5053371;28;20509;-83
2022/04/13 05:46:00;;;;;;;7.77;4.47;;;9.20;55.30;;;7.41;59.64;97900.47;5055173;28;20457;-75
2022/04/13 05:48:27;;;;;;;5.67;5.00;;;8.90;55.50;;;7.60;59.51;97905.09;5045840;28;20460;-79
2022/04/13 05:50:54;;;;;;;10.55;5.90;;;8.90;55.80;;;7.40;59.77;97872.75;5045872;28;20524;-81
2022/04/13 05:53:22;;;;;;;5.77;5.27;;;8.90;55.80;;;7.62;59.04;97900.34;5045794;28;20621;-85
2022/04/13 05:55:55;;;;;;;5.80;5.20;;;9.00;55.50;;;7.54;59.96;97903.22;5044597;28;20767;-81
2022/04/13 05:58:24;;;;;;;6.30;4.90;;;8.90;55.80;;;7.63;59.45;97909.28;5047972;28;20450;-75
2022/04/13 06:00:51;;;;;;;10.97;4.77;;;8.90;55.70;;;7.82;58.65;97912.25;5037858;28;20467;-80
2022/04/13 06:03:19;;;;;;;5.60;4.90;;;9.10;55.70;;;7.90;58.47;97914.78;5043536;28;20476;-78
2022/04/13 06:05:46;;;;;;;5.93;5.40;;;9.10;55.50;;;8.16;57.97;97914.03;5045479;28;20484;-82
2022/04/13 06:08:13;;;;;;;6.27;4.80;;;9.30;55.40;;;8.18;57.10;97917.34;5043229;28;20508;-82
2022/04/13 06:10:40;;;;;;;8.50;5.33;;;9.50;55.00;;;8.18;57.39;97920.03;5051583;28;20562;-81
2022/04/13 06:13:08;;;;;;;5.97;5.20;;;9.50;55.10;;;8.16;58.21;97921.25;5045050;28;20481;-79
2022/04/13 06:15:37;;;;;;;7.57;5.90;;;9.50;55.10;;;8.28;57.47;97921.53;5057132;28;20443;-78
2022/04/13 06:18:05;;;;;;;5.60;5.03;;;9.50;55.00;;;8.38;57.10;97921.13;5051735;28;21426;-78
2022/04/13 06:20:32;;;;;;;5.30;4.57;;;9.60;54.70;;;8.21;57.51;97922.31;5051980;28;20477;-81
2022/04/13 06:22:59;;;;;;;7.57;5.80;;;9.50;54.50;;;8.23;57.66;97920.25;5063623;28;20464;-76
2022/04/13 06:25:26;;;;;;;7.03;5.07;;;9.50;54.70;;;8.53;56.90;97918.28;5063122;28;20442;-76
2022/04/13 06:27:53;;;;;;;6.50;5.30;;;9.70;54.90;;;8.60;56.00;97917.25;5064243;28;20536;-79
2022/04/13 06:30:21;;;;;;;4.53;3.97;;;9.90;54.60;;;8.68;55.85;97921.63;5056411;28;20467;-74
2022/04/13 06:32:50;;;;;;;6.03;5.00;;;9.90;54.30;;;8.70;56.15;97924.94;5070061;28;20466;-82
2022/04/13 06:35:18;;;;;;;8.13;5.10;;;9.90;54.30;;;8.65;56.56;97919.34;5062528;28;20457;-74
2022/04/13 06:37:46;;;;;;;9.13;5.10;;;9.90;54.30;;;8.83;56.38;97923.28;5061490;28;20460;-84
2022/04/13 06:40:14;;;;;;;5.97;4.93;;;10.00;53.50;;;9.00;56.01;97927.22;5062005;28;20453;-74
2022/04/13 06:42:42;;;;;;;7.13;5.30;;;10.20;53.30;;;9.39;54.46;97932.78;5058558;28;21011;-81
2022/04/13 06:45:12;;;;;;;8.87;5.07;;;10.40;53.20;;;9.61;54.00;97924.47;5047588;28;20541;-81
2022/04/13 06:47:39;;;;;;;6.43;5.30;;;10.60;52.80;;;9.75;53.01;97920.69;5055438;28;20454;-81
2022/04/13 06:50:10;;;;;;;8.43;5.00;;;10.90;52.40;;;9.80;53.86;97922.75;5052378;28;20494;-79
2022/04/13 06:52:38;;;;;;;6.50;5.27;;;11.00;52.40;;;10.20;53.34;97916.34;5050188;28;20551;-82
2022/04/13 06:55:09;;;;;;;7.80;5.80;;;11.20;52.50;;;10.39;52.07;97925.41;5043487;28;20457;-82
2022/04/13 06:57:37;;;;;;;6.20;5.30;;;11.40;52.40;;;10.24;52.50;97917.56;5044013;28;20445;-85
2022/04/13 07:00:08;;;;;;;5.97;4.93;;;11.40;51.60;;;10.20;52.98;97929.84;5040934;28;20545;-80
2022/04/13 07:02:36;;;;;;;5.77;5.27;;;11.40;51.60;;;10.32;52.19;97930.84;5059386;28;20456;-80
2022/04/13 07:05:03;;;;;;;8.40;4.80;;;11.50;51.70;;;10.54;52.26;97925.13;5051833;28;20460;-82
2022/04/13 07:07:32;;;;;;;7.90;5.80;;;11.60;51.60;;;10.59;51.30;97922.59;5049687;28;20543;-81
2022/04/13 07:09:59;;;;;;;6.60;5.13;;;11.70;51.50;;;10.95;50.23;97939.19;5046198;28;20481;-84
2022/04/13 07:12:34;;;;;;;6.07;5.40;;;12.00;51.10;;;10.91;50.52;97933.38;5043138;28;20472;-82
2022/04/13 07:15:01;;;;;;;5.83;5.20;;;12.10;51.00;;;11.12;50.58;97933.22;5041267;28;21038;-82
2022/04/13 07:17:28;;;;;;;6.23;5.50;;;12.20;51.10;;;11.31;50.06;97928.69;5042405;28;20460;-76
2022/04/13 07:19:56;;;;;;;9.33;5.13;;;12.30;50.60;;;11.42;49.81;97927.97;5043401;28;20491;-82
2022/04/13 07:22:23;;;;;;;10.33;5.63;;;12.40;50.60;;;11.74;49.15;97924.28;5038577;28;20494;-79
2022/04/13 07:24:52;;;;;;;9.83;5.97;;;12.70;50.40;;;11.88;48.12;97920.38;5035255;28;22276;-83
2022/04/13 07:27:19;;;;;;;6.83;4.90;;;12.90;49.80;;;11.97;47.78;97923.63;5043525;28;20500;-82
2022/04/13 07:29:46;;;;;;;6.50;4.80;;;13.10;49.40;;;12.09;47.51;97929.16;5045845;28;20479;-74
2022/04/13 07:32:13;;;;;;;8.83;4.90;;;13.10;49.40;;;12.32;47.27;97930.28;5067709;28;20545;-84
2022/04/13 07:34:40;;;;;;;7.67;5.43;;;13.30;49.10;;;12.19;47.35;97926.69;5055505;28;20535;-79
2022/04/13 07:37:07;;;;;;;6.00;5.40;;;13.30;49.00;;;12.23;47.54;97943.34;5044938;28;20471;-82
2022/04/13 07:39:35;;;;;;;8.73;4.57;;;13.40;49.50;;;12.17;48.05;97942.34;5055691;28;20489;-76
2022/04/13 07:42:04;;;;;;;9.03;4.77;;;13.40;49.30;;;12.21;47.43;97933.78;5059102;28;20532;-84
2022/04/13 07:44:31;;;;;;;8.03;4.47;;;13.40;49.20;;;12.32;47.48;97938.41;5066685;28;20536;-83
2022/04/13 07:46:58;;;;;;;6.35;5.10;;;13.40;49.30;;;12.25;47.55;97943.13;5049365;28;20466;-86
2022/04/13 07:49:25;;;;;;;7.50;5.30;;;13.40;49.30;;;12.12;47.53;97944.94;5054396;28;20235;-79
2022/04/13 07:51:52;;;;;;;8.20;5.20;;;13.30;49.10;;;12.43;47.67;97947.66;5042140;28;20465;-84
2022/04/13 07:54:19;;;;;;;5.97;5.37;;;13.40;49.20;;;12.37;47.19;97933.16;5045809;28;20463;-83
2022/04/13 07:56:45;;;;;;;6.53;5.00;;;13.50;49.00;;;12.69;47.27;97946.47;5045655;28;20459;-79
2022/04/13 07:59:14;;;;;;;7.83;5.33;;;13.60;49.30;;;12.82;46.60;97945.44;5051857;28;20981;-81
2022/04/13 08:01:41;;;;;;;7.07;5.27;;;13.70;49.00;;;12.71;46.12;97944.34;5041938;28;20447;-80
2022/04/13 08:04:08;;;;;;;7.20;5.03;;;13.90;48.40;;;12.44;46.59;97942.00;5046067;28;20548;-86
2022/04/13 08:06:35;;;;;;;7.83;4.77;;;13.70;48.30;;;12.78;46.57;97955.09;5042368;28;20446;-79
2022/04/13 08:09:02;;;;;;;6.40;4.60;;;13.80;48.60;;;12.59;45.70;97919.94;5049980;28;20910;-82
2022/04/13 08:11:29;;;;;;;5.93;5.27;;;13.90;48.20;;;13.01;45.62;97957.03;5056186;28;20480;-84
2022/04/13 08:13:56;;;;;;;6.00;5.00;;;14.10;48.30;;;13.10;45.80;97951.25;5037622;28;20460;-80
2022/04/13 08:16:24;;;;;;;7.50;5.43;;;14.20;48.50;;;13.20;45.03;97965.09;5048506;28;20456;-85
2022/04/13 08:18:51;;;;;;;10.43;5.13;;;14.20;47.90;;;13.30;44.90;97970.78;5046959;28;20540;-87
2022/04/13 08:21:18;;;;;;;7.45;5.90;;;14.30;47.70;;;13.68;44.08;97973.28;5042459;28;20567;-81
2022/04/13 08:23:45;;;;;;;6.70;6.00;;;14.60;47.60;;;14.10;43.03;97970.41;5041432;28;20720;-86
2022/04/13 08:26:12;;;;;;;7.53;5.90;;;14.90;47.30;;;14.08;42.57;97956.22;5063598;28;20779;-78
2022/04/13 08:28:39;;;;;;;7.00;5.78;;;15.10;47.10;;;14.41;42.49;97967.50;5046845;28;20529;-81
2022/04/13 08:31:09;;;;;;;6.70;5.30;;;15.30;46.90;;;14.40;42.08;97963.09;5059326;28;20187;-77
2022/04/13 08:33:38;;;;;;;6.17;5.20;;;15.50;46.50;;;14.54;41.58;97959.03;5054942;28;20533;-74
2022/04/13 08:36:05;;;;;;;7.03;5.10;;;15.60;46.30;;;14.92;40.92;97975.78;5056414;28;20488;-77
2022/04/13 08:38:32;;;;;;;16.80;5.97;;;15.80;46.20;;;14.84;41.01;97973.47;5059752;28;20479;-79
2022/04/13 08:41:01;;;;;;;7.40;5.33;;;15.90;45.80;;;15.18;40.40;97973.50;5060238;28;20477;-83
2022/04/13 08:43:35;;;;;;;11.43;6.03;;;16.00;45.60;;;15.19;40.04;97963.47;5059277;28;20531;-84
2022/04/13 08:46:07;;;;;;;9.03;5.30;;;16.20;45.60;;;15.38;40.02;97969.47;5053277;28;20500;-87
2022/04/13 08:48:38;;;;;;;7.80;6.00;;;16.30;45.70;;;15.21;40.30;97978.47;5056492;28;20885;-80
2022/04/13 08:51:11;;;;;;;5.73;4.57;;;16.30;45.40;;;15.25;40.37;97967.91;5046212;28;20464;-81
2022/04/13 08:53:44;;;;;;;6.83;5.37;;;16.30;45.60;;;15.11;41.05;97972.88;5045870;28;20462;-74
2022/04/13 08:56:17;;;;;;;6.77;5.13;;;16.30;45.80;;;14.91;40.40;97946.94;5044396;28;20540;-77
2022/04/13 08:58:57;;;;;;;11.20;5.07;;;16.30;45.30;;;14.90;40.72;97977.13;5044090;28;20522;-78
2022/04/13 09:01:34;;;;;;;6.83;5.37;;;16.00;45.30;;;15.07;40.71;97969.81;5051481;28;20504;-78
2022/04/13 09:04:10;;;;;;;6.20;5.20;;;16.00;45.30;;;15.61;39.37;97970.38;5044857;28;20881;-78
2022/04/13 09:06:39;;;;;;;5.70;4.73;;;16.40;45.20;;;15.80;38.64;97969.00;5041858;28;20605;-79
2022/04/13 09:09:15;;;;;;;7.50;5.07;;;16.70;45.20;;;15.47;39.60;97964.44;5048041;28;20512;-79
2022/04/13 09:11:45;;;;;;;6.53;4.93;;;16.50;44.70;;;15.63;39.33;97971.78;5036427;28;20481;-78
2022/04/13 09:14:13;;;;;;;7.27;5.10;;;16.60;44.80;;;15.96;39.32;97971.97;5042478;28;20453;-78
2022/04/13 09:16:43;;;;;;;7.50;4.20;;;16.80;45.00;;;15.99;38.80;97971.47;5048879;28;20543;-79
2022/04/13 09:19:11;;;;;;;5.93;4.47;;;16.80;44.90;;;15.99;38.63;97971.47;5045853;28;20448;-77
2022/04/13 09:21:40;;;;;;;8.60;4.80;;;16.80;44.40;;;15.95;38.32;97922.13;5048023;28;20543;-78
2022/04/13 09:24:11;;;;;;;7.73;5.10;;;17.00;44.50;;;16.42;37.77;97966.28;5041109;28;20517;-77
2022/04/13 09:26:40;;;;;;;10.27;5.23;;;17.30;44.30;;;15.88;38.12;97970.47;5051892;28;20468;-78
2022/04/13 09:29:07;;;;;;;5.40;4.47;;;17.10;43.90;;;15.93;38.63;97967.88;5046453;28;20600;-79
2022/04/13 09:31:34;;;;;;;8.83;4.90;;;16.90;44.20;;;16.32;38.77;97963.44;5033166;28;20494;-79
2022/04/13 09:34:02;;;;;;;5.20;4.70;;;17.20;44.70;;;16.77;37.79;97969.66;5043575;28;20473;-79
2022/04/13 09:36:31;;;;;;;5.70;4.60;;;17.50;44.60;;;16.65;38.30;97967.91;5041861;28;20561;-78
2022/04/13 09:39:00;;;;;;;5.87;4.40;;;17.60;44.50;;;17.20;36.69;97962.44;5039451;28;20979;-81
2022/04/13 09:41:35;;;;;;;6.87;4.60;;;18.00;44.30;;;17.36;36.28;97966.13;5036928;28;20453;-78
2022/04/13 09:44:02;;;;;;;4.37;3.97;;;18.20;44.00;;;17.08;36.63;97959.09;5043144;28;20546;-79
2022/04/13 09:46:31;;;;;;;7.30;5.30;;;18.10;43.70;;;17.26;36.29;97960.56;5040200;28;20972;-79
2022/04/13 09:49:13;;;;;;;4.47;4.00;;;18.10;43.70;;;17.04;36.84;97952.47;5044938;28;20539;-78
2022/04/13 09:51:44;;;;;;;8.57;4.70;;;18.10;43.60;;;16.82;37.20;97958.81;5037702;28;21023;-78
2022/04/13 09:54:12;;;;;;;6.60;4.10;;;18.00;43.90;;;16.77;37.28;97954.13;5037090;28;21019;-78
2022/04/13 09:56:44;;;;;;;4.80;4.40;;;17.80;43.70;;;17.28;36.79;97959.25;5045047;28;20458;-77
2022/04/13 09:59:12;;;;;;;4.63;4.20;;;18.10;43.90;;;17.03;36.53;97896.25;5043329;28;20534;-79
2022/04/13 10:01:39;;;;;;;5.70;4.07;;;18.30;43.70;;;17.47;36.75;97950.63;5042755;28;20452;-79
2022/04/13 10:04:07;;;;;;;4.33;3.87;;;18.40;43.80;;;17.88;36.11;97939.13;5041018;28;20546;-78
2022/04/13 10:06:34;;;;;;;4.30;3.53;;;18.60;43.80;;;17.98;35.63;97939.19;5047839;28;20449;-79
2022/04/13 10:09:09;;;;;;;4.88;4.25;;;18.80;43.50;;;18.08;35.78;97932.97;5043775;28;20456;-77
2022/04/13 10:11:36;;;;;;;6.30;3.60;;;18.90;43.70;;;17.92;36.21;97928.50;5044345;28;20199;-79
2022/04/13 10:14:05;;;;;;;7.70;4.67;;;18.90;43.70;;;18.13;35.82;97923.97;5044006;28;20541;-78
2022/04/13 10:16:34;;;;;;;5.03;3.60;;;19.00;43.70;;;18.51;35.57;97916.47;5036910;28;20816;-78
2022/04/13 10:19:03;;;;;;;4.07;3.60;;;19.30;43.90;;;18.47;34.94;97906.31;5040626;28;20449;-79
2022/04/13 10:21:36;;;;;;;4.60;3.53;;;19.40;43.40;;;18.74;35.07;97905.28;5042351;28;20453;-78
2022/04/13 10:24:05;;;;;;;4.73;4.30;;;19.50;43.60;;;18.66;34.89;97910.19;5042326;28;20473;-78
2022/04/13 10:26:33;;;;;;;5.57;3.63;;;19.50;43.50;;;18.69;35.33;97904.16;5048028;28;20453;-79
2022/04/13 10:29:00;;;;;;;4.10;3.70;;;19.60;43.60;;;18.18;35.73;97901.31;5070888;28;20452;-79
2022/04/13 10:31:27;;;;;;;5.50;3.40;;;19.30;43.20;;;18.23;35.66;97890.38;5048537;28;20759;-78
2022/04/13 10:33:55;;;;;;;5.10;3.60;;;19.10;43.40;;;18.82;35.26;97891.03;5045952;28;20850;-80